Terminal Aerodrome Forecast
Issued by NWS Sterling, VA

Current Version | Previous Version | Text Only | Print | Product List | Glossary Off
Versions: 1 2 3 4 5 6 7 8 9 10 11 12 13 14 15 16 17 18 19 20 21 22 23 24 25 26 27 28 29

000
FTUS41 KLWX 230851 AAC
TAFDCA
TAF AMD
KDCA 230851Z 2309/2406 36004KT P6SM BKN080
     FM231600 06007KT P6SM OVC020
     FM231900 06007KT P6SM OVC015
     FM232100 05007KT 5SM -RA OVC010
     FM240000 05007KT P6SM OVC008=

USA.gov is the U.S. government's official web portal to all federal, state and local government web resources and services.